Ken Voyager — 3FXQ7 — position and weather

sailwx.info

Track history (hours):
 
Tides and Currents Weather Stations Pressure Air Temp Water Temp Dewpoint Dewpoint Depression Visibility Wind Speed Wind Dir Waves Ship Positions

Ken Voyager

Last reported at 2017-Nov-11 20:40 UTC. Time now 2017-Nov-19 18:17 UTC.
Position N 32°02' E 120°26'.

Length 183 m; draft 9.2 m.

Type: Ship. MMSI: 373970000.

Date/timePositionNaut miles runAvg speedWind from/ knotsBaromVisibWave heightAir tempDewpointWater temp
2017-Nov-11 20:40N 32°02' E 120°26'2 9.2
2017-Nov-11 20:30N 32°02' E 120°28'5 9.7
2017-Nov-11 20:00N 32°01' E 120°33'18 7.3
2017-Nov-11 17:32N 31°54' E 120°53'010.1
2017-Nov-11 17:29N 31°54' E 120°53'9 8.6
2017-Nov-11 16:25N 31°47' E 121°00'4 8.8
2017-Nov-11 16:00N 31°46' E 121°04'510.0
2017-Nov-11 15:30N 31°42' E 121°08'510.2
2017-Nov-11 15:01N 31°39' E 121°13'510.4
2017-Nov-11 14:30N 31°36' E 121°18'510.7
2017-Nov-11 14:01N 31°32' E 121°22'611.0
2017-Nov-11 13:31N 31°29' E 121°27'4 8.6
2017-Nov-11 13:00N 31°25' E 121°31'4 7.1
2017-Nov-11 12:31N 31°24' E 121°34'4 8.3
2017-Nov-11 12:01N 31°22' E 121°38'4 8.5
2017-Nov-11 11:30N 31°19' E 121°43'5 9.2
2017-Nov-11 11:01N 31°18' E 121°48'510.2
2017-Nov-11 10:31N 31°16' E 121°53'510.0
2017-Nov-11 10:00N 31°15' E 121°59'5 9.2
2017-Nov-11 09:30N 31°14' E 122°04'4 8.3
2017-Nov-11 09:00N 31°12' E 122°09'7 7.2
2017-Nov-11 08:05N 31°08' E 122°15'1 8.1
2017-Nov-11 08:00N 31°08' E 122°15'5 9.1
2017-Nov-11 07:31N 31°06' E 122°20'5 7.2
2017-Nov-11 06:48N 31°07' E 122°26'2 6.9
2017-Nov-11 06:31N 31°07' E 122°28'  
Track history (hours):
 
Tides and Currents Weather Stations Pressure Air Temp Water Temp Dewpoint Dewpoint Depression Visibility Wind Speed Wind Dir Waves Ship Positions

Ken Voyager

Last reported at 2017-Nov-11 20:40 UTC. Time now 2017-Nov-19 18:17 UTC.
Position N 32°02' E 120°26'.

Length 183 m; draft 9.2 m.

Type: Ship. MMSI: 373970000.

Date/timePositionNaut miles runAvg speedWind from/ knotsBaromVisibWave heightAir tempDewpointWater temp
2017-Nov-11 20:40N 32°02' E 120°26'2 9.2
2017-Nov-11 20:30N 32°02' E 120°28'5 9.7
2017-Nov-11 20:00N 32°01' E 120°33'18 7.3
2017-Nov-11 17:32N 31°54' E 120°53'010.1
2017-Nov-11 17:29N 31°54' E 120°53'9 8.6
2017-Nov-11 16:25N 31°47' E 121°00'4 8.8
2017-Nov-11 16:00N 31°46' E 121°04'510.0
2017-Nov-11 15:30N 31°42' E 121°08'510.2
2017-Nov-11 15:01N 31°39' E 121°13'510.4
2017-Nov-11 14:30N 31°36' E 121°18'510.7
2017-Nov-11 14:01N 31°32' E 121°22'611.0
2017-Nov-11 13:31N 31°29' E 121°27'4 8.6
2017-Nov-11 13:00N 31°25' E 121°31'4 7.1
2017-Nov-11 12:31N 31°24' E 121°34'4 8.3
2017-Nov-11 12:01N 31°22' E 121°38'4 8.5
2017-Nov-11 11:30N 31°19' E 121°43'5 9.2
2017-Nov-11 11:01N 31°18' E 121°48'510.2
2017-Nov-11 10:31N 31°16' E 121°53'510.0
2017-Nov-11 10:00N 31°15' E 121°59'5 9.2
2017-Nov-11 09:30N 31°14' E 122°04'4 8.3
2017-Nov-11 09:00N 31°12' E 122°09'7 7.2
2017-Nov-11 08:05N 31°08' E 122°15'1 8.1
2017-Nov-11 08:00N 31°08' E 122°15'5 9.1
2017-Nov-11 07:31N 31°06' E 122°20'5 7.2
2017-Nov-11 06:48N 31°07' E 122°26'2 6.9
2017-Nov-11 06:31N 31°07' E 122°28'  

Dump ship's entire track history